Weather at Big Sandy Regional Airport

Public forecast

Using degrees Fahrenheit for public forecast. Weather courtesy of forecast.io.

Current aviation weather report (METAR) for Big Sandy Regional Airport

Retrieved 2021/02/25 00:35 UTC (14 minutes ago):

KSJS 250035Z AUTO 33008KT 10SM OVC080 18/03 A2995 RMK AO2 T01820028

Closest aviation forecast (TAF) to Big Sandy Regional Airport

Closest forecast is Julian Carroll Airport, 33.7 nm (62.4 km) WSW. Retrieved 2021-02-25 00:39 UTC (10 minutes ago):

TAF KJKL 242337Z 2500/2524 26009KT P6SM VCSH OVC080 FM250200 29007KT 6SM -SHRA OVC050 FM250700 35006KT P6SM VCSH OVC025 FM251000 36005KT P6SM BKN015 FM251300 VRB04KT P6SM BKN007